Time;durP1;ratioP1;P1;durP2;ratioP2;P2;SDS_P1;SDS_P2;PMS_P1;PMS_P2;Temp;Humidity;BMP_temperature;BMP_pressure;BME280_temperature;BME280_humidity;BME280_pressure;Samples;Min_cycle;Max_cycle;Signal;HPM_P1;HPM_P2
2023/03/01 00:01:17;;;;;;;24.58;14.38;;;;;;;8.01;65.44;96925.34;5066215;28;20091;-47
2023/03/01 00:03:46;;;;;;;27.67;16.17;;;;;;;7.50;67.98;96930.97;5066955;28;20076;-53
2023/03/01 00:06:14;;;;;;;22.58;13.75;;;;;;;7.96;65.92;96924.03;5064636;28;20126;-49
2023/03/01 00:08:42;;;;;;;23.88;13.20;;;;;;;8.18;65.24;96920.59;5060626;28;20548;-51
2023/03/01 00:11:14;;;;;;;24.20;14.63;;;;;;;8.58;62.72;96918.34;5064244;28;20088;-48
2023/03/01 00:13:43;;;;;;;23.85;12.90;;;;;;;8.66;62.20;96913.31;5066082;28;20086;-45
2023/03/01 00:16:15;;;;;;;21.98;14.13;;;;;;;7.99;63.90;96915.94;5063246;28;20088;-49
2023/03/01 00:18:44;;;;;;;22.42;12.77;;;;;;;8.38;63.27;96922.53;5067728;28;20091;-51
2023/03/01 00:21:12;;;;;;;23.83;12.98;;;;;;;8.52;61.44;96910.94;5058577;28;20072;-47
2023/03/01 00:23:41;;;;;;;22.38;14.18;;;;;;;8.23;63.32;96910.56;5066932;28;20112;-47
2023/03/01 00:26:13;;;;;;;26.10;15.60;;;;;;;7.81;64.04;96916.38;5065461;28;20095;-46
2023/03/01 00:28:41;;;;;;;22.00;14.13;;;;;;;7.97;64.37;96908.16;5060423;28;20076;-47
2023/03/01 00:31:11;;;;;;;21.75;13.70;;;;;;;7.82;65.81;96909.31;5062930;28;20093;-50
2023/03/01 00:33:41;;;;;;;22.40;14.23;;;;;;;7.75;66.38;96908.13;5064478;28;20589;-48
2023/03/01 00:36:11;;;;;;;22.33;14.73;;;;;;;7.99;64.58;96906.25;5061707;28;20079;-47
2023/03/01 00:38:41;;;;;;;21.92;14.25;;;;;;;8.19;63.49;96907.34;5066831;28;20339;-48
2023/03/01 00:41:12;;;;;;;22.92;15.00;;;;;;;7.94;65.26;96897.03;5065534;28;20537;-53
2023/03/01 00:43:40;;;;;;;;;;;;;;;7.66;66.83;96895.69;5066514;28;20083;-48
2023/03/01 00:46:10;;;;;;;21.08;12.95;;;;;;;8.06;63.91;96898.75;5062410;28;19963;-48
2023/03/01 00:48:39;;;;;;;22.08;14.05;;;;;;;7.67;66.41;96902.59;5064285;28;20081;-47
2023/03/01 00:51:11;;;;;;;23.10;12.65;;;;;;;8.12;64.35;96894.78;5063330;28;20095;-50
2023/03/01 00:53:39;;;;;;;23.25;13.50;;;;;;;7.90;64.78;96895.59;5065323;28;20508;-51
2023/03/01 00:56:09;;;;;;;22.27;13.05;;;;;;;8.03;64.81;96896.34;5064237;28;20087;-51
2023/03/01 00:58:37;;;;;;;24.60;14.38;;;;;;;8.15;64.32;96890.13;5066070;28;20477;-49
2023/03/01 01:01:16;;;;;;;19.80;12.45;;;;;;;7.84;63.26;96879.38;5063343;28;20489;-54
2023/03/01 01:03:47;;;;;;;17.90;10.35;;;;;;;7.78;64.49;96874.59;5064128;28;20764;-48
2023/03/01 01:06:18;;;;;;;22.52;13.27;;;;;;;7.74;67.09;96869.69;5062724;28;20529;-50
2023/03/01 01:08:46;;;;;;;21.00;12.45;;;;;;;7.62;66.31;96871.47;5064792;28;20079;-50
2023/03/01 01:11:15;;;;;;;23.55;13.52;;;;;;;7.92;66.14;96864.84;5063443;28;20522;-51
2023/03/01 01:13:45;;;;;;;21.88;14.18;;;;;;;7.91;65.40;96866.59;5060135;28;20475;-50
2023/03/01 01:16:14;;;;;;;;;;;;;;;8.18;66.21;96858.38;5066770;28;20095;-50
2023/03/01 01:18:42;;;;;;;26.27;13.70;;;;;;;7.79;67.30;96859.69;5067288;28;19959;-44
2023/03/01 01:21:12;;;;;;;21.58;13.18;;;;;;;7.66;66.27;96854.53;5061787;28;20084;-47
2023/03/01 01:23:42;;;;;;;19.33;11.82;;;;;;;7.98;65.80;96859.09;5061698;28;20084;-50
2023/03/01 01:26:13;;;;;;;22.45;13.70;;;;;;;7.52;67.70;96860.81;5063606;28;20093;-52
2023/03/01 01:28:41;;;;;;;23.17;13.85;;;;;;;8.40;63.84;96846.22;5066163;28;20072;-51
2023/03/01 01:31:09;;;;;;;18.90;12.18;;;;;;;8.22;65.59;96856.34;5060221;28;20080;-47
2023/03/01 01:33:38;;;;;;;21.17;12.90;;;;;;;8.33;63.98;96848.47;5061770;28;20080;-47
2023/03/01 01:36:08;;;;;;;23.30;14.93;;;;;;;8.49;62.53;96845.47;5061786;28;20084;-54
2023/03/01 01:38:37;;;;;;;25.23;14.55;;;;;;;8.36;62.77;96842.94;5066904;28;20476;-50
2023/03/01 01:41:07;;;;;;;16.35;8.50;;;;;;;8.13;63.47;96842.16;5063605;28;20224;-44
2023/03/01 01:43:38;;;;;;;24.35;14.77;;;;;;;7.24;68.98;96848.94;5064232;28;20102;-52
2023/03/01 01:46:06;;;;;;;;;;;;;;;7.97;63.71;96846.91;5059182;28;20127;-50
2023/03/01 01:48:41;;;;;;;22.02;14.98;;;;;;;7.59;66.04;96843.66;5064854;28;19967;-44
2023/03/01 01:51:12;;;;;;;21.40;12.95;;;;;;;7.54;69.77;96842.34;5058504;28;20451;-49
2023/03/01 01:53:41;;;;;;;23.27;12.98;;;;;;;8.03;66.66;96841.19;5061583;28;20080;-52
2023/03/01 01:56:13;;;;;;;20.40;12.52;;;;;;;7.66;66.76;96835.31;5064004;28;20080;-49
2023/03/01 01:58:43;;;;;;;24.38;14.80;;;;;;;7.88;66.24;96837.97;5061683;28;20084;-46
2023/03/01 02:01:11;;;;;;;22.98;14.20;;;;;;;8.00;65.93;96830.91;5057440;28;20080;-48
2023/03/01 02:03:42;;;;;;;23.73;14.55;;;;;;;7.48;65.32;96834.94;5065722;28;20084;-45
2023/03/01 02:06:14;;;;;;;24.67;14.95;;;;;;;7.20;68.50;96836.16;5060690;28;20084;-49
2023/03/01 02:08:43;;;;;;;22.85;13.63;;;;;;;7.24;68.12;96827.13;5058395;28;20095;-46
2023/03/01 02:11:14;;;;;;;25.88;16.23;;;;;;;6.94;73.83;96824.97;5062816;28;20088;-48
2023/03/01 02:13:43;;;;;;;22.38;14.13;;;;;;;7.30;71.00;96824.03;5061580;28;20545;-47
2023/03/01 02:16:14;;;;;;;26.70;15.40;;;;;;;6.79;72.61;96826.94;5060905;28;20477;-49
2023/03/01 02:18:42;;;;;;;;;;;;;;;7.83;66.71;96819.94;5063334;28;20095;-45
2023/03/01 02:21:25;;;;;;;26.52;15.40;;;;;;;7.60;65.57;96818.22;5062857;28;20296;-50
2023/03/01 02:23:55;;;;;;;26.30;14.20;;;;;;;7.71;65.28;96822.66;5061402;28;20076;-51
2023/03/01 02:26:30;;;;;;;15.18;9.27;;;;;;;7.52;66.46;96828.50;5062789;28;20676;-46
2023/03/01 02:29:01;;;;;;;22.40;12.95;;;;;;;7.18;69.01;96819.69;5061893;28;20088;-49
2023/03/01 02:31:44;;;;;;;17.90;12.68;;;;;;;7.80;64.47;96825.41;5061114;28;20060;-48
2023/03/01 02:34:15;;;;;;;27.35;16.50;;;;;;;6.98;66.71;96821.19;5062482;28;20556;-47
2023/03/01 02:36:44;;;;;;;;;;;;;;;7.30;69.51;96817.00;5061072;28;20087;-47
2023/03/01 02:39:17;;;;;;;20.65;12.57;;;;;;;6.89;70.21;96818.28;5062263;28;19960;-48
2023/03/01 02:41:49;;;;;;;21.52;11.77;;;;;;;7.39;68.26;96804.97;5062476;28;20072;-47
2023/03/01 02:44:18;;;;;;;18.02;10.18;;;;;;;7.18;64.77;96804.81;5058927;28;20084;-44
2023/03/01 02:46:48;;;;;;;24.93;14.23;;;;;;;7.38;66.51;96804.13;5061504;28;20541;-51
2023/03/01 02:49:23;;;;;;;24.67;13.70;;;;;;;6.71;72.42;96806.56;5063088;28;20087;-49
2023/03/01 02:52:18;;;;;;;22.40;13.73;;;;;;;6.94;70.30;96809.25;5062240;28;20076;-46
2023/03/01 02:54:50;;;;;;;23.88;14.77;;;;;;;7.15;69.04;96805.03;5058445;28;20561;-46
2023/03/01 02:57:19;;;;;;;24.42;14.82;;;;;;;7.04;70.63;96807.63;5062252;28;20084;-48
2023/03/01 02:59:49;;;;;;;24.42;14.73;;;;;;;7.06;69.04;96805.72;5062942;28;20481;-53
2023/03/01 03:02:35;;;;;;;24.50;15.07;;;;;;;7.05;67.45;96809.28;5060129;28;20088;-52
2023/03/01 03:05:08;;;;;;;20.73;13.57;;;;;;;6.73;70.53;96803.81;5060150;28;20094;-48
2023/03/01 03:07:37;;;;;;;23.88;15.25;;;;;;;6.83;69.74;96807.41;5061304;28;20087;-47
2023/03/01 03:10:08;;;;;;;25.23;16.63;;;;;;;6.33;72.06;96815.41;5062623;28;20084;-49
2023/03/01 03:12:36;;;;;;;18.48;12.68;;;;;;;7.12;70.35;96806.13;5062491;28;20128;-46
2023/03/01 03:15:08;;;;;;;23.15;13.57;;;;;;;7.18;69.00;96802.19;5063723;28;20044;-52
2023/03/01 03:17:37;;;;;;;24.85;14.43;;;;;;;7.23;69.81;96804.47;5060462;28;20080;-45
2023/03/01 03:20:10;;;;;;;22.42;13.65;;;;;;;6.74;73.81;96802.84;5061969;28;20529;-46
2023/03/01 03:22:39;;;;;;;23.20;13.15;;;;;;;6.67;74.21;96815.56;5062840;28;20079;-45
2023/03/01 03:25:10;;;;;;;25.55;15.93;;;;;;;6.75;70.17;96804.53;5062568;28;20072;-45
2023/03/01 03:27:38;;;;;;;21.48;14.68;;;;;;;6.94;69.60;96809.25;5061272;28;20080;-49
2023/03/01 03:30:11;;;;;;;25.92;15.68;;;;;;;6.85;70.75;96797.69;5058975;28;20084;-50
2023/03/01 03:32:40;;;;;;;27.38;16.13;;;;;;;6.57;71.06;96810.19;5061713;28;20064;-48
2023/03/01 03:35:10;;;;;;;24.00;13.68;;;;;;;6.52;75.10;96806.22;5061251;28;20095;-48
2023/03/01 03:40:26;;;;;;;26.13;14.20;;;;;;;6.38;77.77;96813.28;5066177;28;20106;-49
2023/03/01 03:42:54;;;;;;;27.65;15.85;;;;;;;6.81;77.63;96799.69;5066635;28;20076;-47
2023/03/01 03:45:24;;;;;;;25.40;15.32;;;;;;;5.87;80.13;96812.53;5063991;28;20084;-45
2023/03/01 03:47:52;;;;;;;26.10;17.00;;;;;;;5.91;80.95;96809.56;5066011;28;20477;-52
2023/03/01 03:50:21;;;;;;;25.48;15.68;;;;;;;5.98;80.49;96803.94;5064752;28;20556;-48
2023/03/01 03:52:49;;;;;;;26.13;15.70;;;;;;;5.83;86.42;96797.97;5059466;28;20512;-50
2023/03/01 03:55:19;;;;;;;24.88;13.85;;;;;;;6.14;80.76;96794.06;5064411;28;20068;-48
2023/03/01 03:57:51;;;;;;;28.00;15.55;;;;;;;6.12;79.83;96795.94;5064114;28;20068;-48
2023/03/01 04:00:21;;;;;;;22.05;11.02;;;;;;;5.92;83.65;96787.75;5058807;28;20072;-47
2023/03/01 04:02:56;;;;;;;17.85;8.88;;;;;;;5.85;81.41;96783.00;5065775;28;20071;-47
2023/03/01 04:05:24;;;;;;;25.52;14.63;;;;;;;6.11;81.09;96792.50;5061228;28;20068;-53
2023/03/01 04:08:00;;;;;;;26.35;15.63;;;;;;;5.66;85.56;96781.66;5062417;28;20556;-45
2023/03/01 04:10:30;;;;;;;27.40;15.82;;;;;;;5.88;81.37;96777.53;5063529;28;20165;-51
2023/03/01 04:12:59;;;;;;;29.43;17.57;;;;;;;5.65;82.81;96781.78;5064529;28;20068;-52
2023/03/01 04:15:28;;;;;;;28.65;17.20;;;;;;;5.26;89.43;96782.72;5060856;28;20564;-47
2023/03/01 04:17:58;;;;;;;30.52;19.85;;;;;;;5.00;92.32;96783.53;5063509;28;20095;-51
2023/03/01 04:20:28;;;;;;;23.60;13.30;;;;;;;5.47;90.37;96784.72;5065540;28;20168;-50
2023/03/01 04:23:10;;;;;;;29.27;16.45;;;;;;;5.44;86.43;96782.31;5064843;28;20068;-49
2023/03/01 04:25:39;;;;;;;25.55;12.95;;;;;;;5.37;88.96;96786.31;5064584;28;20482;-44
2023/03/01 04:28:08;;;;;;;29.02;18.00;;;;;;;5.14;90.70;96780.00;5064904;28;20076;-48
2023/03/01 04:30:37;;;;;;;27.55;15.98;;;;;;;4.84;92.60;96782.88;5060107;28;20060;-46
2023/03/01 04:33:08;;;;;;;29.20;17.60;;;;;;;5.03;90.18;96786.91;5064929;28;20087;-50
2023/03/01 04:35:38;;;;;;;28.42;16.00;;;;;;;5.18;89.15;96778.84;5063764;28;20076;-48
2023/03/01 04:38:07;;;;;;;28.50;17.10;;;;;;;5.14;90.21;96779.16;5065340;28;20083;-48
2023/03/01 04:40:35;;;;;;;28.10;16.63;;;;;;;5.18;84.26;96776.22;5061413;28;20087;-45
2023/03/01 04:43:04;;;;;;;28.52;17.92;;;;;;;5.57;82.15;96771.81;5060760;28;20072;-48
2023/03/01 04:45:34;;;;;;;26.95;15.90;;;;;;;5.56;82.52;96771.94;5061037;28;20469;-47
2023/03/01 04:48:03;;;;;;;30.15;16.35;;;;;;;5.23;83.47;96774.16;5062552;28;20099;-47
2023/03/01 04:50:33;;;;;;;31.65;18.58;;;;;;;5.06;88.68;96777.06;5059234;28;20071;-48
2023/03/01 04:53:02;;;;;;;25.38;16.55;;;;;;;4.73;91.36;96785.38;5065694;28;20080;-47
2023/03/01 04:55:31;;;;;;;29.35;16.75;;;;;;;5.12;89.41;96773.19;5064371;28;20457;-53
2023/03/01 04:57:59;;;;;;;29.25;16.90;;;;;;;5.44;83.33;96771.84;5061962;28;20099;-47
2023/03/01 05:00:27;;;;;;;27.58;15.77;;;;;;;5.34;85.75;96765.59;5063656;28;20094;-49
2023/03/01 05:02:57;;;;;;;30.90;17.35;;;;;;;4.94;91.24;96763.03;5063482;28;20083;-47
2023/03/01 05:05:28;;;;;;;28.38;18.70;;;;;;;4.76;93.08;96762.50;5066148;28;20084;-48
2023/03/01 05:08:00;;;;;;;23.23;15.55;;;;;;;4.91;91.59;96759.78;5062108;28;20084;-45
2023/03/01 05:10:30;;;;;;;36.78;18.70;;;;;;;4.83;91.60;96760.31;5062686;28;20090;-50
2023/03/01 05:12:59;;;;;;;25.85;15.02;;;;;;;5.10;88.86;96757.63;5062663;28;20080;-46
2023/03/01 05:15:28;;;;;;;30.85;17.25;;;;;;;4.63;92.20;96755.56;5062303;28;20084;-49
2023/03/01 05:18:00;;;;;;;33.00;17.67;;;;;;;4.82;89.61;96750.81;5064678;28;20462;-43
2023/03/01 05:20:29;;;;;;;26.67;16.35;;;;;;;4.70;89.46;96760.28;5067633;28;20501;-47
2023/03/01 05:23:04;;;;;;;28.33;16.77;;;;;;;4.50;93.33;96769.41;5060368;28;20521;-54
2023/03/01 05:25:34;;;;;;;28.17;17.13;;;;;;;4.83;89.98;96755.09;5062088;28;20426;-53
2023/03/01 05:28:04;;;;;;;28.30;14.05;;;;;;;4.35;95.08;96761.75;5063497;28;20067;-50
2023/03/01 05:30:32;;;;;;;30.17;18.97;;;;;;;5.07;89.38;96760.44;5057210;28;20056;-51
2023/03/01 05:33:01;;;;;;;31.13;15.85;;;;;;;4.85;89.53;96763.66;5062531;28;20506;-51
2023/03/01 05:35:32;;;;;;;29.75;18.30;;;;;;;4.73;91.93;96769.69;5060899;28;20103;-54
2023/03/01 05:38:02;;;;;;;31.05;18.90;;;;;;;4.69;92.55;96768.22;5064409;28;20069;-49
2023/03/01 05:40:30;;;;;;;27.60;16.20;;;;;;;4.76;91.48;96764.28;5062260;28;20365;-47
2023/03/01 05:42:58;;;;;;;26.90;15.68;;;;;;;5.02;89.24;96759.91;5063687;28;20505;-48
2023/03/01 05:45:28;;;;;;;29.55;18.05;;;;;;;4.79;91.35;96768.47;5062988;28;20068;-48
2023/03/01 05:47:57;;;;;;;28.98;16.90;;;;;;;4.98;91.31;96761.88;5062307;28;20084;-53
2023/03/01 05:50:27;;;;;;;29.65;16.67;;;;;;;4.63;92.51;96761.63;5062382;28;20084;-51
2023/03/01 05:52:59;;;;;;;29.95;17.73;;;;;;;4.78;93.17;96759.75;5062646;28;20076;-50
2023/03/01 05:55:30;;;;;;;28.88;18.48;;;;;;;4.59;96.24;96757.53;5062053;28;20087;-55
2023/03/01 05:57:59;;;;;;;28.50;17.40;;;;;;;4.49;94.36;96756.47;5059781;28;20656;-48
2023/03/01 06:00:28;;;;;;;30.42;17.95;;;;;;;4.64;94.17;96759.84;5060675;28;20095;-52
2023/03/01 06:02:57;;;;;;;33.15;17.83;;;;;;;5.13;89.92;96751.38;5061146;28;20079;-45
2023/03/01 06:05:26;;;;;;;29.35;16.52;;;;;;;4.07;98.38;96760.91;5062511;28;20442;-48
2023/03/01 06:07:54;;;;;;;30.35;17.05;;;;;;;5.02;90.15;96756.47;5059208;28;20099;-46
2023/03/01 06:10:23;;;;;;;23.90;14.57;;;;;;;4.44;95.04;96762.00;5059844;28;20114;-45
2023/03/01 06:12:53;;;;;;;31.00;18.05;;;;;;;4.39;96.15;96764.06;5063857;28;20091;-48
2023/03/01 06:15:22;;;;;;;30.38;16.20;;;;;;;4.78;90.75;96767.59;5062422;28;20076;-52
2023/03/01 06:17:50;;;;;;;30.08;18.15;;;;;;;4.82;90.48;96766.47;5062842;28;20106;-55
2023/03/01 06:20:21;;;;;;;32.35;17.33;;;;;;;4.98;89.92;96769.72;5061586;28;20075;-54
2023/03/01 06:22:49;;;;;;;29.05;16.65;;;;;;;4.59;91.56;96770.59;5060375;28;20099;-53
2023/03/01 06:25:20;;;;;;;26.73;15.45;;;;;;;5.35;85.20;96771.66;5058161;28;20096;-53
2023/03/01 06:27:49;;;;;;;27.60;14.20;;;;;;;5.23;83.12;96776.78;5059610;28;20084;-56
2023/03/01 06:30:20;;;;;;;26.27;15.13;;;;;;;5.08;87.70;96774.34;5061366;28;20076;-57
2023/03/01 06:32:49;;;;;;;30.98;17.63;;;;;;;4.99;87.49;96771.41;5061020;28;20568;-53
2023/03/01 06:35:18;;;;;;;30.40;16.83;;;;;;;5.09;88.58;96776.84;5061438;28;20484;-54
2023/03/01 06:37:48;;;;;;;37.22;17.63;;;;;;;5.36;83.17;96774.16;5060983;28;20137;-54
2023/03/01 06:40:17;;;;;;;33.00;18.08;;;;;;;5.13;83.74;96778.34;5059549;28;20092;-53
2023/03/01 06:42:49;;;;;;;29.73;15.45;;;;;;;5.47;79.08;96776.88;5060345;28;20090;-53
2023/03/01 06:45:20;;;;;;;32.72;19.08;;;;;;;5.12;84.86;96787.09;5060121;28;20076;-54
2023/03/01 06:47:48;;;;;;;25.73;13.90;;;;;;;5.35;83.96;96787.34;5061278;28;20081;-54
2023/03/01 06:50:17;;;;;;;30.15;17.10;;;;;;;5.58;80.25;96791.00;5058509;28;20084;-54
2023/03/01 06:52:46;;;;;;;30.30;16.77;;;;;;;5.29;80.95;96783.34;5060928;28;20084;-49
2023/03/01 06:55:13;;;;;;;27.60;16.27;;;;;;;5.53;78.60;96786.06;5059361;28;20064;-52
2023/03/01 06:57:41;;;;;;;31.63;17.30;;;;;;;5.51;79.24;96787.13;5058426;28;20081;-47
2023/03/01 07:00:11;;;;;;;28.67;15.57;;;;;;;6.20;76.29;96779.72;5062621;28;20545;-49
2023/03/01 07:02:41;;;;;;;35.92;18.65;;;;;;;5.84;74.67;96776.94;5060114;28;20051;-52
2023/03/01 07:05:09;;;;;;;26.20;17.33;;;;;;;5.67;77.05;96766.81;5060001;28;20534;-53
2023/03/01 07:07:37;;;;;;;28.73;16.02;;;;;;;6.24;73.50;96771.53;5062115;28;20084;-52
2023/03/01 07:10:07;;;;;;;30.67;16.58;;;;;;;6.02;72.57;96766.13;5065207;28;20075;-56
2023/03/01 07:12:36;;;;;;;25.83;14.30;;;;;;;5.65;73.21;96771.31;5065097;28;20110;-55
2023/03/01 07:15:05;;;;;;;27.67;15.50;;;;;;;6.12;72.85;96767.97;5064526;28;20072;-57
2023/03/01 07:17:34;;;;;;;29.55;15.35;;;;;;;6.36;69.31;96762.75;5065232;28;20091;-50
2023/03/01 07:20:04;;;;;;;28.40;16.70;;;;;;;6.12;69.59;96767.16;5063114;28;20083;-50
2023/03/01 07:22:32;;;;;;;30.70;20.85;;;;;;;5.73;74.77;96766.38;5065519;28;20083;-52
2023/03/01 07:25:01;;;;;;;30.98;16.67;;;;;;;6.24;71.33;96758.44;5064838;28;20477;-56
2023/03/01 07:27:29;;;;;;;32.17;18.30;;;;;;;6.39;71.32;96751.25;5065492;28;20087;-51
2023/03/01 07:29:57;;;;;;;30.77;15.82;;;;;;;6.54;69.07;96744.91;5063515;28;20159;-51
2023/03/01 07:32:25;;;;;;;29.50;16.60;;;;;;;6.75;65.46;96733.78;5064603;28;20079;-54
2023/03/01 07:34:54;;;;;;;31.17;17.75;;;;;;;5.64;69.84;96749.56;5060134;28;20072;-52
2023/03/01 07:37:23;;;;;;;32.03;17.20;;;;;;;5.87;69.51;96745.31;5062093;28;20088;-54
2023/03/01 07:39:52;;;;;;;28.07;15.27;;;;;;;6.74;65.88;96735.53;5064896;28;20099;-55
2023/03/01 07:42:20;;;;;;;29.48;16.23;;;;;;;5.64;70.13;96746.94;5064213;28;20095;-50
2023/03/01 07:44:48;;;;;;;25.17;14.55;;;;;;;6.49;67.21;96733.06;5065819;28;20087;-52
2023/03/01 07:47:17;;;;;;;29.02;16.02;;;;;;;6.35;67.80;96736.69;5065385;28;20545;-53
2023/03/01 07:49:45;;;;;;;29.95;15.25;;;;;;;5.82;70.73;96739.59;5063511;28;20088;-51
2023/03/01 07:52:13;;;;;;;32.30;19.85;;;;;;;5.50;73.84;96749.66;5065580;28;20132;-51
2023/03/01 07:54:45;;;;;;;26.50;16.15;;;;;;;5.37;75.35;96747.06;5065582;28;20480;-45
2023/03/01 07:57:13;;;;;;;29.73;17.90;;;;;;;5.65;72.88;96745.16;5061531;28;20084;-46
2023/03/01 07:59:41;;;;;;;26.75;15.48;;;;;;;5.46;73.16;96743.81;5064557;28;20087;-52
2023/03/01 08:02:10;;;;;;;27.70;14.15;;;;;;;5.31;75.51;96744.88;5059212;28;20095;-51
2023/03/01 08:04:38;;;;;;;31.08;15.93;;;;;;;6.38;66.55;96733.84;5064109;28;20080;-53
2023/03/01 08:07:07;;;;;;;25.67;14.75;;;;;;;5.87;69.45;96736.63;5064803;28;20079;-48
2023/03/01 08:09:36;;;;;;;32.67;16.77;;;;;;;5.91;65.39;96731.06;5063894;28;20495;-54
2023/03/01 08:12:07;;;;;;;29.08;19.08;;;;;;;5.44;66.99;96739.66;5060232;28;20139;-52
2023/03/01 08:14:35;;;;;;;30.17;16.75;;;;;;;6.60;62.69;96723.47;5066933;28;20076;-49
2023/03/01 08:17:03;;;;;;;27.20;17.20;;;;;;;5.89;64.70;96719.88;5064357;28;20083;-52
2023/03/01 08:19:33;;;;;;;33.72;23.60;;;;;;;5.62;67.02;96730.50;5063931;28;20110;-52
2023/03/01 08:22:02;;;;;;;33.97;18.27;;;;;;;6.06;66.23;96723.09;5063486;28;20084;-51
2023/03/01 08:24:30;;;;;;;26.73;15.48;;;;;;;7.03;62.43;96703.69;5055100;28;20502;-52
2023/03/01 08:26:59;;;;;;;26.27;14.20;;;;;;;6.28;61.80;96717.16;5065532;28;20088;-53
2023/03/01 08:29:29;;;;;;;28.20;17.15;;;;;;;6.27;63.25;96718.94;5063146;28;20458;-49
2023/03/01 08:31:57;;;;;;;25.30;15.13;;;;;;;6.58;62.68;96701.78;5062010;28;20084;-52
2023/03/01 08:34:26;;;;;;;26.88;14.75;;;;;;;7.32;59.99;96709.31;5062485;28;20517;-48
2023/03/01 08:36:54;;;;;;;26.45;14.98;;;;;;;6.69;58.28;96698.38;5064484;28;20072;-55
2023/03/01 08:39:22;;;;;;;28.33;18.25;;;;;;;6.57;59.45;96710.63;5064410;28;20064;-48
2023/03/01 08:41:51;;;;;;;27.88;13.88;;;;;;;6.87;59.81;96707.47;5058412;28;20707;-52
2023/03/01 08:44:20;;;;;;;27.67;15.98;;;;;;;6.18;62.53;96704.72;5058270;28;20072;-51
2023/03/01 08:46:52;;;;;;;24.40;15.40;;;;;;;5.99;63.55;96711.38;5065976;28;20441;-49
2023/03/01 08:49:21;;;;;;;24.20;14.95;;;;;;;6.25;63.41;96712.13;5068477;28;20060;-55
2023/03/01 08:51:50;;;;;;;27.23;13.90;;;;;;;6.18;63.85;96706.50;5066658;28;20076;-51
2023/03/01 08:54:20;;;;;;;26.48;15.77;;;;;;;6.77;62.89;96701.25;5064798;28;20076;-51
2023/03/01 08:56:49;;;;;;;31.38;20.17;;;;;;;6.53;62.56;96701.28;5066136;28;20102;-53
2023/03/01 08:59:19;;;;;;;26.90;16.20;;;;;;;6.55;61.75;96704.63;5062389;28;20071;-49
2023/03/01 09:01:47;;;;;;;27.83;16.23;;;;;;;6.69;63.76;96695.75;5063029;28;20067;-53
2023/03/01 09:04:17;;;;;;;25.98;14.32;;;;;;;6.85;60.98;96696.28;5064162;28;20087;-46
2023/03/01 09:06:45;;;;;;;28.88;15.68;;;;;;;7.22;59.55;96690.81;5062825;28;20080;-54
2023/03/01 09:09:15;;;;;;;29.95;19.52;;;;;;;6.98;60.56;96692.72;5066304;28;20629;-48
2023/03/01 09:11:45;;;;;;;29.55;16.33;;;;;;;7.43;58.84;96684.88;5065087;28;20084;-53
2023/03/01 09:14:14;;;;;;;26.23;14.80;;;;;;;7.70;56.54;96689.75;5065066;28;20132;-54
2023/03/01 09:16:43;;;;;;;31.70;20.15;;;;;;;6.73;58.76;96691.13;5061603;28;20071;-48
2023/03/01 09:19:12;;;;;;;28.88;20.13;;;;;;;7.01;59.01;96702.97;5065891;28;20078;-49
2023/03/01 09:21:51;;;;;;;27.88;17.83;;;;;;;7.20;56.71;96694.53;5066778;28;20079;-49
2023/03/01 09:24:22;;;;;;;27.15;16.45;;;;;;;7.11;57.86;96696.06;5059971;28;20080;-48
2023/03/01 09:26:50;;;;;;;30.40;15.90;;;;;;;6.85;59.56;96693.66;5059546;28;20461;-50
2023/03/01 09:29:19;;;;;;;32.58;18.90;;;;;;;7.94;57.00;96682.53;5064107;28;20103;-48
2023/03/01 09:31:47;;;;;;;36.00;24.65;;;;;;;7.17;58.12;96697.41;5061710;28;20080;-49
2023/03/01 09:34:19;;;;;;;25.45;14.93;;;;;;;7.14;58.44;96687.97;5061821;28;20087;-50
2023/03/01 09:36:48;;;;;;;32.60;18.77;;;;;;;7.01;59.14;96690.69;5060885;28;20064;-57
2023/03/01 09:39:18;;;;;;;26.52;16.00;;;;;;;7.80;58.69;96681.03;5062233;28;20414;-53
2023/03/01 09:41:50;;;;;;;35.50;17.70;;;;;;;7.19;57.93;96661.38;5061624;28;20291;-54
2023/03/01 09:44:30;;;;;;;29.08;19.33;;;;;;;6.94;58.63;96675.53;5062590;28;20075;-49
2023/03/01 09:46:59;;;;;;;31.98;20.52;;;;;;;7.36;57.70;96677.50;5064965;28;20080;-48
2023/03/01 09:49:31;;;;;;;31.55;20.15;;;;;;;7.84;57.35;96677.22;5064259;28;20572;-46
2023/03/01 09:52:13;;;;;;;29.30;17.55;;;;;;;7.31;56.04;96669.13;5063304;28;20123;-50
2023/03/01 09:54:41;;;;;;;31.13;16.23;;;;;;;7.59;59.34;96674.84;5060824;28;20092;-51
2023/03/01 09:57:19;;;;;;;28.48;17.40;;;;;;;8.19;55.66;96668.28;5062977;28;20739;-47
2023/03/01 10:00:00;;;;;;;31.15;16.95;;;;;;;7.53;57.76;96670.06;5065905;28;20083;-47
2023/03/01 10:02:34;;;;;;;29.10;17.05;;;;;;;7.76;56.08;96649.91;5063433;28;20080;-47
2023/03/01 10:05:10;;;;;;;26.23;16.58;;;;;;;7.91;56.28;96655.69;5064605;28;20129;-48
2023/03/01 10:07:45;;;;;;;30.65;21.88;;;;;;;7.56;56.41;96657.56;5062846;28;20517;-51
2023/03/01 10:10:32;;;;;;;27.25;18.48;;;;;;;7.73;57.18;96656.22;5062634;28;20064;-56
2023/03/01 10:13:01;;;;;;;30.90;18.58;;;;;;;8.20;56.05;96643.69;5063136;28;20079;-51
2023/03/01 10:15:35;;;;;;;30.25;18.98;;;;;;;8.84;52.88;96639.31;5065221;28;20082;-48
2023/03/01 10:18:07;;;;;;;26.13;16.45;;;;;;;8.96;52.02;96638.28;5064458;28;20079;-53
2023/03/01 10:20:44;;;;;;;26.40;15.70;;;;;;;8.67;53.93;96643.34;5063805;28;20087;-56
2023/03/01 10:23:14;;;;;;;26.02;14.90;;;;;;;8.28;54.78;96629.91;5058111;28;20442;-48
2023/03/01 10:25:56;;;;;;;29.03;15.53;;;;;;;8.29;54.06;96635.06;5062771;28;20064;-54
2023/03/01 10:28:28;;;;;;;28.83;16.33;;;;;;;8.18;55.18;96627.19;5064362;28;20319;-52
2023/03/01 10:30:57;;;;;;;29.85;19.00;;;;;;;8.84;55.06;96628.78;5060672;28;20079;-53
2023/03/01 10:33:28;;;;;;;24.38;14.68;;;;;;;9.09;53.17;96623.13;5063302;28;20068;-52
2023/03/01 10:35:56;;;;;;;29.95;18.00;;;;;;;9.97;50.25;96616.31;5062493;28;20648;-52
2023/03/01 10:38:26;;;;;;;28.90;18.88;;;;;;;9.18;51.42;96617.06;5063305;28;20493;-52
2023/03/01 10:40:57;;;;;;;29.30;19.88;;;;;;;9.12;53.81;96616.75;5059192;28;20072;-50
2023/03/01 10:43:27;;;;;;;29.17;19.10;;;;;;;9.61;51.62;96605.44;5065648;28;20459;-55
2023/03/01 10:45:55;;;;;;;34.13;20.63;;;;;;;8.97;52.41;96619.75;5065518;28;20081;-50
2023/03/01 10:48:26;;;;;;;28.25;18.85;;;;;;;8.90;52.59;96620.41;5077251;28;20060;-47
2023/03/01 10:51:07;;;;;;;26.63;16.70;;;;;;;8.96;53.11;96612.00;5064929;28;20099;-56
2023/03/01 10:53:38;;;;;;;29.33;17.38;;;;;;;9.46;52.10;96597.09;5064940;28;20067;-51
2023/03/01 10:56:08;;;;;;;31.15;21.08;;;;;;;8.65;53.14;96603.25;5064951;28;20068;-47
2023/03/01 10:58:38;;;;;;;29.60;16.70;;;;;;;8.62;52.25;96591.19;5068625;28;20068;-48
2023/03/01 11:01:07;;;;;;;29.48;17.42;;;;;;;9.95;50.35;96568.22;5063282;28;20079;-53
2023/03/01 11:03:37;;;;;;;31.75;18.45;;;;;;;9.99;50.46;96564.34;5063913;28;20072;-50
2023/03/01 11:06:07;;;;;;;;;;;;;;;9.90;50.58;96560.72;5066389;28;20075;-52
2023/03/01 11:08:39;;;;;;;26.92;17.73;;;;;;;8.67;52.40;96578.50;5064875;28;20378;-49
2023/03/01 11:11:24;;;;;;;27.23;17.70;;;;;;;9.51;51.49;96567.72;5064683;28;20079;-52
2023/03/01 11:13:56;;;;;;;28.17;15.57;;;;;;;10.18;49.97;96543.22;5060048;28;20094;-48
2023/03/01 11:16:27;;;;;;;29.45;18.08;;;;;;;9.55;51.45;96545.44;5064679;28;20090;-50
2023/03/01 11:19:15;;;;;;;28.52;19.40;;;;;;;9.88;50.69;96538.13;5064111;28;20076;-48
2023/03/01 11:21:51;;;;;;;25.77;16.52;;;;;;;9.94;51.47;96541.03;5058960;28;20094;-51
2023/03/01 11:24:33;;;;;;;26.38;16.33;;;;;;;9.54;51.22;96537.69;5065003;28;20060;-51
2023/03/01 11:27:04;;;;;;;26.90;16.55;;;;;;;9.75;51.35;96530.50;5065843;28;20084;-52
2023/03/01 11:29:38;;;;;;;27.73;19.58;;;;;;;10.03;52.80;96530.63;5064080;28;20119;-47
2023/03/01 11:32:16;;;;;;;30.15;18.58;;;;;;;10.01;51.75;96525.50;5062757;28;20083;-49
2023/03/01 11:34:48;;;;;;;30.70;20.15;;;;;;;10.25;52.30;96532.13;5066813;28;20076;-47
2023/03/01 11:37:24;;;;;;;26.73;18.17;;;;;;;9.21;52.69;96508.09;5063247;28;20063;-47
2023/03/01 11:40:00;;;;;;;31.20;18.40;;;;;;;9.28;51.95;96515.31;5063042;28;20552;-53
2023/03/01 11:42:36;;;;;;;27.38;16.70;;;;;;;10.51;49.74;96509.50;5064354;28;20084;-45
2023/03/01 11:45:09;;;;;;;27.00;16.50;;;;;;;9.85;51.49;96505.00;5059548;28;20072;-50